createdAt,value
2022-09-10T00:01:40.748Z,4.40
2022-09-10T00:04:12.851Z,4.13
2022-09-10T00:06:45.303Z,4.60
2022-09-10T00:09:14.670Z,4.43
2022-09-10T00:11:43.604Z,4.55
2022-09-10T00:14:19.938Z,4.25
2022-09-10T00:16:48.461Z,3.72
2022-09-10T00:19:17.370Z,3.65
2022-09-10T00:21:47.089Z,3.75
2022-09-10T00:24:15.583Z,3.50
2022-09-10T00:26:44.167Z,3.80
2022-09-10T00:29:15.183Z,4.25
2022-09-10T00:31:43.889Z,4.10
2022-09-10T00:34:14.248Z,4.15
2022-09-10T00:36:44.923Z,5.10
2022-09-10T00:41:47.777Z,5.78
2022-09-10T00:44:56.010Z,5.50
2022-09-10T00:47:30.895Z,5.13
2022-09-10T00:50:05.487Z,5.75
2022-09-10T00:52:39.431Z,5.63
2022-09-10T00:55:11.591Z,6.60
2022-09-10T00:57:41.237Z,5.47
2022-09-10T01:00:13.756Z,6.45
2022-09-10T01:02:43.750Z,5.15
2022-09-10T01:05:13.428Z,4.90
2022-09-10T01:07:42.865Z,5.10
2022-09-10T01:10:18.027Z,4.90
2022-09-10T01:13:15.956Z,4.65
2022-09-10T01:15:51.616Z,5.45
2022-09-10T01:18:34.912Z,4.82
2022-09-10T01:21:19.362Z,5.32
2022-09-10T01:24:30.655Z,4.60
2022-09-10T01:27:41.284Z,4.38
2022-09-10T01:30:15.738Z,3.83
2022-09-10T01:32:59.474Z,4.10
2022-09-10T01:35:39.246Z,4.40
2022-09-10T01:38:15.787Z,4.97
2022-09-10T01:40:46.425Z,4.68
2022-09-10T01:43:20.122Z,5.25
2022-09-10T01:46:11.635Z,4.90
2022-09-10T01:48:59.899Z,4.43
2022-09-10T01:51:40.309Z,3.92
2022-09-10T01:54:28.475Z,3.97
2022-09-10T01:57:10.987Z,4.05
2022-09-10T01:59:51.512Z,4.13
2022-09-10T02:02:25.260Z,4.57
2022-09-10T02:04:55.498Z,5.07
2022-09-10T02:07:27.230Z,5.75
2022-09-10T02:09:57.454Z,5.47
2022-09-10T02:12:27.879Z,5.97
2022-09-10T02:15:28.650Z,5.57
2022-09-10T02:18:07.450Z,6.28
2022-09-10T02:20:35.794Z,5.80
2022-09-10T02:23:04.906Z,5.95
2022-09-10T02:25:37.255Z,5.30
2022-09-10T02:28:06.199Z,5.80
2022-09-10T02:30:36.261Z,5.90
2022-09-10T02:33:04.791Z,5.57
2022-09-10T02:35:33.128Z,5.93
2022-09-10T02:38:01.547Z,5.00
2022-09-10T02:40:31.751Z,5.35
2022-09-10T02:43:00.467Z,4.97
2022-09-10T02:45:30.210Z,5.70
2022-09-10T02:48:01.565Z,4.95
2022-09-10T02:50:31.257Z,4.43
2022-09-10T02:53:00.986Z,4.85
2022-09-10T02:55:29.371Z,5.55
2022-09-10T02:57:58.316Z,4.75
2022-09-10T03:00:27.040Z,5.18
2022-09-10T03:03:00.869Z,4.43
2022-09-10T03:05:32.699Z,5.13
2022-09-10T03:08:01.431Z,4.90
2022-09-10T03:10:31.745Z,4.68
2022-09-10T03:13:00.428Z,4.85
2022-09-10T03:15:29.567Z,5.60
2022-09-10T03:17:58.261Z,5.35
2022-09-10T03:20:27.480Z,4.22
2022-09-10T03:22:57.242Z,4.78
2022-09-10T03:25:25.627Z,4.97
2022-09-10T03:27:59.789Z,4.75
2022-09-10T03:30:29.144Z,5.32
2022-09-10T03:32:57.793Z,5.15
2022-09-10T03:35:26.208Z,4.63
2022-09-10T03:37:56.035Z,4.80
2022-09-10T03:40:24.307Z,5.90
2022-09-10T03:42:52.601Z,5.15
2022-09-10T03:45:20.820Z,6.10
2022-09-10T03:47:49.057Z,6.03
2022-09-10T03:50:20.306Z,5.93
2022-09-10T03:52:48.608Z,6.43
2022-09-10T03:55:18.950Z,5.97
2022-09-10T04:00:17.718Z,6.38
2022-09-10T04:02:46.877Z,6.07
2022-09-10T04:05:16.000Z,6.78
2022-09-10T04:07:44.261Z,5.95
2022-09-10T04:10:14.680Z,7.10
2022-09-10T04:12:45.176Z,7.05
2022-09-10T04:15:13.767Z,7.47
2022-09-10T04:17:42.252Z,7.85
2022-09-10T04:20:12.010Z,7.43
2022-09-10T04:22:41.183Z,6.80
2022-09-10T04:25:10.714Z,6.70
2022-09-10T04:27:40.003Z,7.35
2022-09-10T04:30:12.416Z,6.20
2022-09-10T04:32:41.070Z,7.00
2022-09-10T04:35:11.170Z,6.95
2022-09-10T04:37:39.579Z,6.25
2022-09-10T04:40:09.667Z,7.47
2022-09-10T04:42:39.046Z,6.82
2022-09-10T04:45:10.927Z,6.68
2022-09-10T04:47:39.375Z,5.93
2022-09-10T04:50:10.263Z,6.63
2022-09-10T04:52:39.031Z,7.30
2022-09-10T04:55:09.692Z,7.53
2022-09-10T04:57:38.251Z,6.22
2022-09-10T05:00:09.007Z,6.13
2022-09-10T05:02:40.636Z,6.30
2022-09-10T05:05:09.943Z,5.97
2022-09-10T05:07:38.647Z,5.67
2022-09-10T05:10:10.509Z,6.38
2022-09-10T05:12:39.612Z,6.82
2022-09-10T05:15:09.984Z,6.65
2022-09-10T05:17:39.833Z,6.65
2022-09-10T05:22:45.392Z,6.50
2022-09-10T05:25:13.779Z,6.90
2022-09-10T05:27:42.790Z,7.40
2022-09-10T05:30:15.268Z,6.72
2022-09-10T05:32:45.184Z,6.40
2022-09-10T05:37:46.377Z,6.88
2022-09-10T05:40:16.256Z,7.75
2022-09-10T05:42:44.932Z,6.63
2022-09-10T05:45:14.019Z,7.03
2022-09-10T05:47:45.474Z,6.40
2022-09-10T05:50:18.621Z,6.55
2022-09-10T05:52:47.211Z,7.93
2022-09-10T05:55:15.774Z,7.90
2022-09-10T05:57:44.106Z,7.22
2022-09-10T06:00:15.951Z,7.88
2022-09-10T06:02:53.269Z,7.50
2022-09-10T06:05:31.991Z,7.03
2022-09-10T06:08:05.415Z,6.80
2022-09-10T06:10:38.558Z,6.57
2022-09-10T06:13:07.387Z,6.25
2022-09-10T06:15:37.889Z,6.15
2022-09-10T06:18:07.611Z,4.18
2022-09-10T06:20:37.001Z,4.63
2022-09-10T06:23:06.999Z,3.40
2022-09-10T06:25:35.257Z,3.50
2022-09-10T06:28:03.933Z,3.78
2022-09-10T06:30:32.449Z,3.70
2022-09-10T06:33:00.984Z,3.70
2022-09-10T06:35:32.402Z,4.28
2022-09-10T06:38:02.071Z,4.45
2022-09-10T06:40:30.367Z,4.10
2022-09-10T06:43:06.090Z,3.63
2022-09-10T06:46:02.032Z,3.47
2022-09-10T06:48:48.540Z,2.92
2022-09-10T06:51:20.535Z,3.28
2022-09-10T06:53:51.294Z,2.50
2022-09-10T06:56:22.095Z,3.03
2022-09-10T06:58:51.726Z,2.95
2022-09-10T07:01:23.786Z,3.28
2022-09-10T07:03:57.823Z,2.80
2022-09-10T07:06:31.822Z,3.03
2022-09-10T07:09:05.866Z,2.90
2022-09-10T07:11:41.529Z,2.75
2022-09-10T07:14:13.895Z,2.95
2022-09-10T07:16:44.567Z,3.25
2022-09-10T07:19:14.898Z,3.00
2022-09-10T07:21:47.536Z,3.38
2022-09-10T07:24:18.123Z,3.05
2022-09-10T07:27:00.324Z,3.35
2022-09-10T07:29:31.315Z,3.17
2022-09-10T07:32:01.704Z,2.92
2022-09-10T07:34:30.182Z,2.95
2022-09-10T07:36:59.920Z,3.40
2022-09-10T07:39:29.317Z,3.00
2022-09-10T07:42:00.318Z,2.95
2022-09-10T07:44:31.268Z,3.13
2022-09-10T07:47:03.415Z,3.08
2022-09-10T07:49:33.012Z,3.25
2022-09-10T07:52:03.343Z,3.13
2022-09-10T07:54:37.774Z,3.25
2022-09-10T07:57:06.957Z,3.58
2022-09-10T07:59:37.065Z,3.97
2022-09-10T08:02:06.468Z,4.72
2022-09-10T08:04:37.583Z,4.97
2022-09-10T08:07:11.250Z,5.07
2022-09-10T08:09:43.198Z,6.70
2022-09-10T08:12:17.350Z,7.20
2022-09-10T08:14:46.368Z,7.70
2022-09-10T08:17:14.990Z,8.13
2022-09-10T08:19:45.914Z,8.88
2022-09-10T08:22:15.654Z,9.98
2022-09-10T08:24:51.018Z,9.77
2022-09-10T08:27:20.194Z,9.50
2022-09-10T08:29:50.137Z,9.48
2022-09-10T08:32:18.490Z,10.27
2022-09-10T08:34:47.157Z,9.77
2022-09-10T08:37:17.277Z,9.88
2022-09-10T08:39:45.747Z,9.45
2022-09-10T08:42:21.625Z,7.65
2022-09-10T08:44:55.429Z,7.85
2022-09-10T08:47:36.143Z,7.38
2022-09-10T08:50:20.215Z,5.43
2022-09-10T08:52:55.963Z,4.90
2022-09-10T08:55:32.915Z,5.10
2022-09-10T08:58:11.468Z,4.68
2022-09-10T09:00:45.413Z,4.30
2022-09-10T09:03:24.136Z,3.75
2022-09-10T09:05:57.303Z,4.20
2022-09-10T09:08:38.517Z,4.00
2022-09-10T09:11:25.387Z,4.25
2022-09-10T09:14:12.834Z,3.45
2022-09-10T09:17:01.960Z,4.30
2022-09-10T09:19:35.015Z,4.15
2022-09-10T09:22:17.381Z,4.03
2022-09-10T09:27:27.159Z,4.93
2022-09-10T09:30:02.736Z,4.75
2022-09-10T09:32:37.249Z,5.10
2022-09-10T09:35:22.588Z,5.05
2022-09-10T09:38:08.945Z,5.40
2022-09-10T09:40:46.743Z,6.20
2022-09-10T09:43:25.291Z,6.45
2022-09-10T09:45:54.982Z,6.30
2022-09-10T09:48:24.990Z,6.93
2022-09-10T09:50:57.201Z,6.72
2022-09-10T09:53:27.624Z,6.05
2022-09-10T09:56:00.328Z,6.70
2022-09-10T09:58:34.969Z,6.68
2022-09-10T10:01:18.228Z,5.88
2022-09-10T10:03:52.221Z,6.00
2022-09-10T10:06:24.745Z,5.85
2022-09-10T10:09:06.142Z,5.43
2022-09-10T10:11:52.180Z,5.60
2022-09-10T10:14:27.724Z,6.07
2022-09-10T10:17:00.388Z,6.07
2022-09-10T10:19:40.316Z,5.95
2022-09-10T10:22:24.431Z,5.03
2022-09-10T10:24:54.427Z,4.72
2022-09-10T10:27:32.667Z,4.47
2022-09-10T10:30:06.063Z,3.72
2022-09-10T10:32:44.819Z,4.25
2022-09-10T10:35:36.110Z,4.35
2022-09-10T10:38:32.478Z,3.85
2022-09-10T10:41:42.795Z,3.88
2022-09-10T10:44:33.666Z,3.80
2022-09-10T10:47:25.123Z,3.30
2022-09-10T10:50:08.991Z,3.60
2022-09-10T10:52:45.670Z,3.38
2022-09-10T10:55:23.195Z,3.17
2022-09-10T10:58:18.878Z,3.65
2022-09-10T11:00:54.950Z,4.05
2022-09-10T11:03:30.543Z,3.90
2022-09-10T11:06:04.995Z,3.65
2022-09-10T11:08:38.604Z,3.70
2022-09-10T11:11:14.309Z,3.92
2022-09-10T11:13:52.150Z,3.72
2022-09-10T11:16:28.707Z,3.50
2022-09-10T11:19:03.637Z,3.78
2022-09-10T11:21:39.282Z,3.47
2022-09-10T11:24:17.236Z,3.47
2022-09-10T11:26:49.929Z,3.70
2022-09-10T11:29:32.874Z,3.88
2022-09-10T11:32:09.456Z,3.83
2022-09-10T11:35:03.549Z,3.85
2022-09-10T11:37:48.466Z,3.63
2022-09-10T11:40:25.456Z,3.63
2022-09-10T11:42:59.505Z,3.17
2022-09-10T11:45:38.092Z,3.42
2022-09-10T11:48:18.267Z,3.30
2022-09-10T11:50:53.395Z,3.28
2022-09-10T11:53:24.805Z,3.35
2022-09-10T11:56:43.461Z,3.42
2022-09-10T11:59:42.402Z,3.42
2022-09-10T12:02:58.496Z,3.45
2022-09-10T12:05:35.584Z,3.17
2022-09-10T12:08:17.561Z,3.58
2022-09-10T12:10:57.936Z,2.85
2022-09-10T12:13:26.497Z,3.03
2022-09-10T12:15:58.502Z,2.95
2022-09-10T12:18:38.708Z,3.05
2022-09-10T12:21:27.993Z,2.78
2022-09-10T12:23:57.606Z,3.40
2022-09-10T12:26:26.315Z,2.97
2022-09-10T12:29:05.378Z,3.25
2022-09-10T12:32:15.548Z,3.50
2022-09-10T12:34:44.887Z,3.63
2022-09-10T12:37:28.610Z,3.35
2022-09-10T12:40:45.279Z,2.97
2022-09-10T12:43:54.442Z,3.40
2022-09-10T12:46:25.681Z,3.50
2022-09-10T12:49:11.918Z,2.95
2022-09-10T12:51:58.725Z,3.20
2022-09-10T12:54:48.373Z,3.42
2022-09-10T12:57:31.105Z,3.42
2022-09-10T13:00:18.745Z,3.13
2022-09-10T13:02:55.090Z,3.47
2022-09-10T13:05:31.493Z,3.10
2022-09-10T13:08:18.183Z,3.20
2022-09-10T13:11:05.730Z,3.58
2022-09-10T13:13:39.062Z,3.50
2022-09-10T13:16:13.408Z,3.47
2022-09-10T13:18:41.895Z,3.35
2022-09-10T13:21:52.905Z,3.45
2022-09-10T13:25:01.184Z,3.10
2022-09-10T13:27:44.426Z,3.10
2022-09-10T13:30:18.758Z,3.33
2022-09-10T13:32:52.977Z,3.15
2022-09-10T13:36:06.672Z,3.08
2022-09-10T13:39:29.534Z,2.92
2022-09-10T13:42:31.285Z,3.40
2022-09-10T13:45:29.300Z,3.10
2022-09-10T13:48:04.165Z,3.20
2022-09-10T13:50:40.241Z,2.80
2022-09-10T13:53:11.603Z,3.30
2022-09-10T13:55:41.203Z,2.95
2022-09-10T13:58:15.512Z,3.30
2022-09-10T14:00:55.961Z,3.67
2022-09-10T14:03:29.777Z,3.60
2022-09-10T14:06:04.024Z,3.53
2022-09-10T14:08:38.444Z,3.30
2022-09-10T14:11:15.917Z,3.70
2022-09-10T14:13:51.873Z,3.30
2022-09-10T14:16:30.079Z,3.28
2022-09-10T14:19:02.830Z,2.97
2022-09-10T14:21:31.607Z,3.55
2022-09-10T14:24:00.862Z,2.88
2022-09-10T14:26:33.552Z,3.83
2022-09-10T14:29:04.003Z,3.92
2022-09-10T14:31:38.248Z,3.97
2022-09-10T14:34:36.121Z,3.88
2022-09-10T14:37:45.194Z,3.45
2022-09-10T14:40:19.731Z,3.53
2022-09-10T14:42:49.832Z,4.10
2022-09-10T14:45:41.630Z,3.92
2022-09-10T14:48:36.961Z,4.35
2022-09-10T14:51:14.420Z,4.00
2022-09-10T14:53:43.783Z,4.47
2022-09-10T14:56:23.226Z,4.50
2022-09-10T14:58:59.351Z,4.43
2022-09-10T15:01:28.447Z,3.65
2022-09-10T15:03:59.270Z,3.80
2022-09-10T15:06:27.966Z,4.03
2022-09-10T15:08:57.084Z,4.25
2022-09-10T15:11:27.543Z,3.60
2022-09-10T15:13:58.752Z,4.00
2022-09-10T15:16:27.571Z,3.63
2022-09-10T15:18:58.171Z,4.10
2022-09-10T15:23:54.879Z,3.97
2022-09-10T15:26:23.268Z,3.85
2022-09-10T15:28:52.665Z,3.25
2022-09-10T15:31:21.080Z,3.78
2022-09-10T15:33:49.394Z,3.63
2022-09-10T15:36:19.286Z,3.30
2022-09-10T15:38:47.509Z,3.72
2022-09-10T15:41:16.946Z,3.72
2022-09-10T15:43:45.767Z,4.18
2022-09-10T15:46:17.066Z,4.07
2022-09-10T15:48:47.455Z,3.63
2022-09-10T15:51:21.392Z,3.78
2022-09-10T15:53:52.294Z,4.00
2022-09-10T15:56:24.182Z,3.67
2022-09-10T15:58:55.057Z,4.05
2022-09-10T16:01:25.022Z,4.05
2022-09-10T16:03:56.126Z,4.40
2022-09-10T16:06:28.427Z,4.28
2022-09-10T16:09:01.947Z,4.25
2022-09-10T16:11:32.170Z,5.22
2022-09-10T16:14:04.733Z,4.93
2022-09-10T16:16:34.766Z,3.75
2022-09-10T16:19:04.261Z,4.18
2022-09-10T16:21:37.148Z,4.70
2022-09-10T16:24:07.324Z,4.45
2022-09-10T16:26:38.683Z,4.70
2022-09-10T16:29:12.876Z,4.03
2022-09-10T16:31:41.631Z,4.47
2022-09-10T16:34:14.104Z,4.88
2022-09-10T16:36:44.621Z,5.07
2022-09-10T16:39:15.539Z,4.35
2022-09-10T16:41:46.339Z,4.38
2022-09-10T16:44:17.469Z,4.53
2022-09-10T16:46:47.081Z,4.03
2022-09-10T16:49:18.156Z,5.00
2022-09-10T16:51:49.340Z,4.78
2022-09-10T16:54:19.842Z,4.50
2022-09-10T16:56:50.242Z,5.57
2022-09-10T16:59:20.812Z,4.85
2022-09-10T17:04:23.370Z,5.05
2022-09-10T17:06:56.102Z,4.75
2022-09-10T17:09:24.796Z,5.43
2022-09-10T17:11:53.339Z,5.15
2022-09-10T17:14:21.626Z,5.32
2022-09-10T17:16:49.966Z,5.38
2022-09-10T17:19:23.140Z,5.35
2022-09-10T17:21:56.154Z,4.97
2022-09-10T17:24:26.611Z,4.43
2022-09-10T17:26:56.122Z,4.63
2022-09-10T17:29:26.571Z,4.82
2022-09-10T17:31:57.353Z,4.40
2022-09-10T17:34:27.090Z,5.63
2022-09-10T17:36:56.694Z,4.60
2022-09-10T17:39:28.180Z,4.40
2022-09-10T17:41:57.062Z,4.90
2022-09-10T17:44:25.727Z,4.47
2022-09-10T17:46:55.109Z,4.60
2022-09-10T17:49:23.930Z,5.05
2022-09-10T17:51:53.297Z,4.88
2022-09-10T17:54:23.444Z,5.25
2022-09-10T17:56:51.932Z,4.78
2022-09-10T17:59:21.193Z,4.82
2022-09-10T18:01:49.629Z,5.00
2022-09-10T18:04:19.288Z,5.18
2022-09-10T18:06:52.065Z,5.50
2022-09-10T18:09:23.538Z,4.93
2022-09-10T18:11:51.963Z,5.38
2022-09-10T18:14:21.920Z,5.68
2022-09-10T18:16:51.429Z,5.22
2022-09-10T18:19:20.062Z,5.35
2022-09-10T18:21:51.032Z,5.88
2022-09-10T18:24:24.021Z,5.68
2022-09-10T18:26:54.805Z,5.45
2022-09-10T18:29:25.965Z,5.50
2022-09-10T18:31:56.244Z,5.22
2022-09-10T18:34:27.753Z,5.13
2022-09-10T18:36:58.350Z,5.65
2022-09-10T18:39:30.514Z,5.63
2022-09-10T18:42:00.936Z,5.90
2022-09-10T18:44:33.216Z,6.10
2022-09-10T18:47:02.005Z,5.97
2022-09-10T18:49:30.372Z,5.30
2022-09-10T18:51:58.761Z,5.10
2022-09-10T18:54:29.631Z,5.30
2022-09-10T18:56:58.751Z,5.85
2022-09-10T18:59:27.824Z,5.60
2022-09-10T19:01:56.875Z,5.82
2022-09-10T19:04:27.642Z,5.97
2022-09-10T19:09:29.670Z,5.93
2022-09-10T19:12:00.406Z,5.28
2022-09-10T19:14:35.663Z,5.88
2022-09-10T19:17:04.745Z,6.20
2022-09-10T19:19:36.200Z,6.10
2022-09-10T19:22:07.287Z,6.00
2022-09-10T19:24:54.455Z,5.90
2022-09-10T19:27:23.330Z,5.78
2022-09-10T19:29:51.902Z,6.78
2022-09-10T19:32:21.057Z,6.00
2022-09-10T19:34:50.992Z,6.13
2022-09-10T19:37:19.571Z,6.22
2022-09-10T19:39:49.245Z,6.88
2022-09-10T19:42:17.873Z,6.57
2022-09-10T19:44:46.167Z,5.72
2022-09-10T19:47:14.451Z,7.03
2022-09-10T19:49:43.147Z,6.40
2022-09-10T19:52:11.723Z,6.60
2022-09-10T19:54:39.914Z,6.63
2022-09-10T19:57:09.541Z,6.95
2022-09-10T19:59:38.144Z,7.03
2022-09-10T20:02:06.481Z,7.70
2022-09-10T20:04:36.207Z,7.70
2022-09-10T20:07:05.009Z,7.10
2022-09-10T20:09:36.733Z,7.15
2022-09-10T20:12:10.198Z,7.75
2022-09-10T20:14:39.046Z,7.22
2022-09-10T20:17:07.471Z,7.45
2022-09-10T20:19:36.061Z,7.03
2022-09-10T20:22:04.273Z,8.02
2022-09-10T20:24:32.929Z,7.18
2022-09-10T20:27:01.245Z,7.85
2022-09-10T20:29:32.862Z,7.25
2022-09-10T20:32:01.406Z,6.80
2022-09-10T20:34:31.243Z,6.82
2022-09-10T20:36:59.887Z,7.57
2022-09-10T20:39:28.208Z,7.28
2022-09-10T20:41:56.487Z,7.40
2022-09-10T20:44:26.151Z,6.70
2022-09-10T20:46:57.578Z,7.90
2022-09-10T20:49:25.938Z,8.63
2022-09-10T20:51:54.143Z,7.15
2022-09-10T20:54:22.598Z,7.35
2022-09-10T20:56:50.823Z,7.43
2022-09-10T20:59:20.858Z,7.53
2022-09-10T21:01:52.927Z,8.93
2022-09-10T21:04:22.928Z,9.27
2022-09-10T21:06:51.283Z,8.38
2022-09-10T21:09:19.622Z,8.32
2022-09-10T21:11:47.834Z,8.52
2022-09-10T21:14:17.151Z,9.98
2022-09-10T21:16:47.250Z,10.85
2022-09-10T21:19:17.581Z,10.27
2022-09-10T21:21:48.783Z,11.48
2022-09-10T21:24:19.281Z,10.27
2022-09-10T21:26:47.713Z,11.23
2022-09-10T21:29:17.907Z,13.00
2022-09-10T21:31:46.328Z,13.50
2022-09-10T21:34:15.520Z,10.88
2022-09-10T21:36:44.094Z,11.18
2022-09-10T21:39:18.415Z,12.55
2022-09-10T21:41:48.821Z,11.93
2022-09-10T21:44:20.297Z,12.93
2022-09-10T21:46:49.865Z,12.80
2022-09-10T21:49:18.872Z,13.18
2022-09-10T21:51:47.573Z,13.48
2022-09-10T21:54:20.720Z,15.30
2022-09-10T21:56:50.503Z,15.23
2022-09-10T21:59:19.383Z,13.73
2022-09-10T22:01:48.617Z,14.25
2022-09-10T22:04:21.726Z,13.15
2022-09-10T22:06:51.042Z,11.82
2022-09-10T22:09:21.309Z,12.25
2022-09-10T22:11:52.015Z,14.02
2022-09-10T22:14:23.268Z,12.77
2022-09-10T22:16:53.728Z,10.05
2022-09-10T22:19:23.950Z,10.45
2022-09-10T22:21:54.049Z,11.52
2022-09-10T22:24:24.083Z,12.20
2022-09-10T22:26:52.695Z,11.68
2022-09-10T22:29:22.262Z,16.40
2022-09-10T22:31:50.710Z,15.68
2022-09-10T22:34:20.667Z,14.77
2022-09-10T22:36:50.301Z,10.95
2022-09-10T22:39:20.821Z,11.27
2022-09-10T22:41:52.133Z,10.93
2022-09-10T22:44:20.524Z,10.13
2022-09-10T22:46:49.139Z,11.98
2022-09-10T22:49:17.977Z,14.23
2022-09-10T22:51:46.870Z,16.60
2022-09-10T22:54:16.577Z,14.20
2022-09-10T22:56:45.531Z,14.77
2022-09-10T22:59:16.475Z,13.60
2022-09-10T23:01:48.170Z,13.38
2022-09-10T23:04:17.292Z,18.95
2022-09-10T23:06:45.722Z,16.50
2022-09-10T23:09:15.895Z,16.15
2022-09-10T23:11:45.441Z,14.02
2022-09-10T23:14:19.263Z,15.63
2022-09-10T23:16:50.019Z,14.15
2022-09-10T23:21:51.077Z,12.60
2022-09-10T23:24:21.948Z,11.52
2022-09-10T23:26:50.681Z,12.60
2022-09-10T23:29:23.008Z,10.50
2022-09-10T23:31:53.245Z,10.82
2022-09-10T23:34:22.851Z,11.13
2022-09-10T23:36:51.504Z,9.55
2022-09-10T23:39:22.448Z,10.18
2022-09-10T23:41:53.320Z,7.38
2022-09-10T23:44:23.709Z,7.43
2022-09-10T23:46:53.466Z,10.23
2022-09-10T23:49:21.709Z,10.83
2022-09-10T23:51:50.579Z,9.35
2022-09-10T23:54:19.072Z,9.57
2022-09-10T23:56:47.406Z,10.45
2022-09-10T23:59:16.286Z,9.15
